Time;durP1;ratioP1;P1;durP2;ratioP2;P2;SDS_P1;SDS_P2;PMS_P1;PMS_P2;Temp;Humidity;BMP_temperature;BMP_pressure;BME280_temperature;BME280_humidity;BME280_pressure;Samples;Min_cycle;Max_cycle;Signal;HPM_P1;HPM_P2
2022/01/20 00:01:46;;;;;;;73.82;23.63;;;;;;;;;;5092654;28;20047;-73
2022/01/20 00:04:28;;;;;;;69.10;23.42;;;;;;;;;;5093923;28;20024;-71
2022/01/20 00:07:26;;;;;;;58.17;23.33;;;;;;;;;;5092625;28;20024;-72
2022/01/20 00:23:08;;;;;;;63.72;23.65;;;;;;;;;;5093687;28;20063;-72
2022/01/20 00:26:11;;;;;;;57.75;20.92;;;;;;;;;;5093474;28;20079;-71
2022/01/20 00:28:41;;;;;;;54.38;19.10;;;;;;;;;;5092269;28;20385;-72
2022/01/20 00:31:32;;;;;;;51.45;19.02;;;;;;;;;;5093548;28;20030;-71
2022/01/20 00:34:11;;;;;;;54.10;21.35;;;;;;;;;;5094029;28;20068;-72
2022/01/20 00:39:24;;;;;;;44.95;19.52;;;;;;;;;;5093992;28;20035;-70
2022/01/20 00:41:50;;;;;;;59.35;20.92;;;;;;;;;;5092143;28;20028;-72
2022/01/20 00:44:16;;;;;;;52.15;21.02;;;;;;;;;;5093340;28;20103;-72
2022/01/20 00:46:42;;;;;;;47.33;18.98;;;;;;;;;;5093378;28;20032;-71
2022/01/20 00:49:10;;;;;;;48.38;18.45;;;;;;;;;;5092025;28;20547;-71
2022/01/20 00:51:36;;;;;;;50.30;20.40;;;;;;;;;;5093624;28;20028;-72
2022/01/20 00:54:02;;;;;;;42.78;16.42;;;;;;;;;;5093302;28;20016;-70
2022/01/20 00:56:28;;;;;;;52.17;19.70;;;;;;;;;;5091905;28;20382;-73
2022/01/20 00:58:55;;;;;;;50.83;20.30;;;;;;;;;;5094007;28;20107;-73
2022/01/20 01:01:21;;;;;;;52.42;20.45;;;;;;;;;;5093221;28;20106;-72
2022/01/20 01:03:47;;;;;;;50.53;20.50;;;;;;;;;;5093237;28;20020;-73
2022/01/20 01:06:38;;;;;;;58.53;20.48;;;;;;;;;;5093702;28;20025;-71
2022/01/20 01:09:06;;;;;;;52.08;20.67;;;;;;;;;;5093983;28;20484;-72
2022/01/20 01:11:32;;;;;;;53.03;22.48;;;;;;;;;;5097094;28;20020;-67
2022/01/20 01:14:00;;;;;;;65.78;23.45;;;;;;;;;;5095780;28;20491;-72
2022/01/20 01:16:38;;;;;;;56.30;21.77;;;;;;;;;;5095623;28;20028;-72
2022/01/20 01:22:03;;;;;;;54.13;22.67;;;;;;;;;;5097496;28;20375;-73
2022/01/20 01:24:31;;;;;;;55.00;23.30;;;;;;;;;;5097185;28;20107;-72
2022/01/20 01:26:57;;;;;;;61.45;22.48;;;;;;;;;;5096605;28;20040;-73
2022/01/20 01:29:44;;;;;;;52.15;20.73;;;;;;;;;;5096952;28;20035;-71
2022/01/20 01:32:12;;;;;;;63.72;21.33;;;;;;;;;;5096600;28;20035;-73
2022/01/20 01:34:41;;;;;;;59.38;21.73;;;;;;;;;;5095407;28;20024;-73
2022/01/20 01:37:24;;;;;;;56.25;21.17;;;;;;;;;;5096453;28;20040;-73
2022/01/20 01:39:51;;;;;;;57.47;19.35;;;;;;;;;;5095362;28;20020;-73
2022/01/20 01:42:25;;;;;;;54.80;20.15;;;;;;;;;;5095221;28;20028;-73
2022/01/20 01:44:52;;;;;;;54.30;20.17;;;;;;;;;;5095264;28;20024;-73
2022/01/20 01:47:18;;;;;;;49.90;19.45;;;;;;;;;;5096414;28;20055;-72
2022/01/20 01:49:45;;;;;;;57.83;21.38;;;;;;;;;;5095139;28;20047;-72
2022/01/20 01:52:11;;;;;;;53.08;20.65;;;;;;;;;;5096324;28;20097;-72
2022/01/20 01:54:37;;;;;;;52.03;19.33;;;;;;;;;;5095010;28;20392;-72
2022/01/20 01:57:06;;;;;;;50.95;19.20;;;;;;;;;;5097373;28;20036;-72
2022/01/20 01:59:33;;;;;;;54.47;18.83;;;;;;;;;;5100266;28;20027;-67
2022/01/20 02:01:59;;;;;;;50.65;19.83;;;;;;;;;;5094910;28;20110;-72
2022/01/20 02:04:25;;;;;;;48.00;17.45;;;;;;;;;;5096881;28;20103;-73
2022/01/20 02:17:47;;;;;;;27.85;12.23;;;;;;;;;;5096917;28;20449;-72
2022/01/20 02:20:24;;;;;;;25.67;11.13;;;;;;;;;;5095528;28;20031;-70
2022/01/20 02:22:51;;;;;;;26.20;12.73;;;;;;;;;;5094515;28;20051;-72
2022/01/20 02:25:27;;;;;;;24.75;12.32;;;;;;;;;;5094221;28;20024;-72
2022/01/20 02:27:55;;;;;;;23.65;11.75;;;;;;;;;;5094327;28;20485;-70
2022/01/20 02:30:22;;;;;;;23.30;11.50;;;;;;;;;;5095608;28;20054;-73
2022/01/20 02:33:07;;;;;;;25.02;11.30;;;;;;;;;;5095609;28;20093;-72
2022/01/20 02:35:36;;;;;;;22.52;10.98;;;;;;;;;;5094173;28;20028;-72
2022/01/20 02:38:11;;;;;;;21.02;10.60;;;;;;;;;;5095939;28;20028;-70
2022/01/20 02:45:48;;;;;;;20.08;10.43;;;;;;;;;;5095620;28;20499;-73
2022/01/20 02:48:14;;;;;;;19.67;9.63;;;;;;;;;;5093934;28;20032;-69
2022/01/20 02:50:41;;;;;;;19.40;9.90;;;;;;;;;;5095489;28;20024;-72
2022/01/20 02:53:07;;;;;;;21.67;10.05;;;;;;;;;;5093821;28;20035;-72
2022/01/20 02:55:33;;;;;;;18.73;9.98;;;;;;;;;;5093721;28;20032;-72
2022/01/20 02:57:59;;;;;;;18.83;9.90;;;;;;;;;;5094578;28;20036;-72
2022/01/20 03:00:26;;;;;;;19.73;9.95;;;;;;;;;;5093705;28;20389;-73
2022/01/20 03:02:52;;;;;;;20.55;10.15;;;;;;;;;;5094980;28;20032;-70
2022/01/20 03:05:18;;;;;;;24.00;10.05;;;;;;;;;;5093676;28;20056;-72
2022/01/20 03:07:46;;;;;;;19.80;9.85;;;;;;;;;;5093582;28;20020;-73
2022/01/20 03:10:12;;;;;;;20.00;9.65;;;;;;;;;;5093566;28;20048;-73
2022/01/20 03:12:38;;;;;;;17.33;9.38;;;;;;;;;;5093491;28;20028;-72
2022/01/20 03:15:04;;;;;;;17.58;9.40;;;;;;;;;;5093449;28;20031;-70
2022/01/20 03:17:32;;;;;;;17.00;8.40;;;;;;;;;;5076476;28;20036;-72
2022/01/20 03:19:59;;;;;;;18.13;9.27;;;;;;;;;;5095196;28;20051;-72
2022/01/20 03:22:25;;;;;;;17.63;8.82;;;;;;;;;;5094608;28;20158;-72
2022/01/20 03:24:53;;;;;;;16.45;8.80;;;;;;;;;;5094571;28;20384;-73
2022/01/20 03:27:19;;;;;;;16.98;9.00;;;;;;;;;;5093073;28;20043;-73
2022/01/20 03:29:46;;;;;;;18.15;8.90;;;;;;;;;;5093178;28;20028;-73
2022/01/20 03:32:12;;;;;;;17.30;8.50;;;;;;;;;;5094246;28;20020;-72
2022/01/20 03:34:38;;;;;;;18.95;8.23;;;;;;;;;;5093126;28;20039;-70
2022/01/20 03:37:05;;;;;;;15.18;8.35;;;;;;;;;;5092972;28;20051;-72
2022/01/20 03:39:31;;;;;;;17.42;7.95;;;;;;;;;;5094550;28;20073;-73
2022/01/20 03:41:57;;;;;;;15.18;8.05;;;;;;;;;;5094320;28;20132;-73
2022/01/20 03:44:24;;;;;;;15.27;7.00;;;;;;;;;;5095953;28;20024;-72
2022/01/20 03:46:51;;;;;;;15.02;6.97;;;;;;;;;;5094405;28;20024;-72
2022/01/20 03:49:38;;;;;;;13.02;6.80;;;;;;;;;;5093990;28;20059;-73
2022/01/20 03:52:04;;;;;;;15.27;7.40;;;;;;;;;;5094555;28;20111;-69
2022/01/20 03:54:31;;;;;;;13.60;6.80;;;;;;;;;;5092768;28;20455;-73
2022/01/20 03:56:57;;;;;;;14.27;6.97;;;;;;;;;;5093958;28;20483;-72
2022/01/20 03:59:24;;;;;;;14.45;6.65;;;;;;;;;;5092694;28;20119;-73
2022/01/20 04:01:50;;;;;;;13.27;6.82;;;;;;;;;;5093901;28;20028;-73
2022/01/20 04:04:16;;;;;;;13.90;6.78;;;;;;;;;;5092578;28;20024;-72
2022/01/20 04:06:42;;;;;;;13.55;6.28;;;;;;;;;;5092602;28;20550;-72
2022/01/20 04:09:08;;;;;;;13.18;6.50;;;;;;;;;;5092575;28;20024;-73
2022/01/20 04:11:35;;;;;;;12.15;5.75;;;;;;;;;;5093887;28;20492;-72
2022/01/20 04:14:03;;;;;;;13.57;5.80;;;;;;;;;;5094309;28;20426;-70
2022/01/20 04:16:50;;;;;;;13.90;5.70;;;;;;;;;;5092353;28;20028;-72
2022/01/20 04:19:16;;;;;;;12.07;6.22;;;;;;;;;;5094367;28;20030;-72
2022/01/20 04:21:43;;;;;;;12.65;5.70;;;;;;;;;;5093682;28;20035;-72
2022/01/20 04:24:10;;;;;;;12.52;5.97;;;;;;;;;;5092256;28;20078;-73
2022/01/20 04:26:38;;;;;;;9.13;5.40;;;;;;;;;;5093561;28;20059;-72
2022/01/20 04:29:05;;;;;;;10.88;5.78;;;;;;;;;;5092274;28;20366;-71
2022/01/20 04:31:31;;;;;;;12.32;5.82;;;;;;;;;;5093532;28;20094;-70
2022/01/20 04:33:58;;;;;;;10.50;5.45;;;;;;;;;;5092221;28;20054;-73
2022/01/20 04:36:25;;;;;;;10.38;5.55;;;;;;;;;;5092118;28;20078;-72
2022/01/20 04:38:51;;;;;;;13.43;5.50;;;;;;;;;;5092098;28;20020;-73
2022/01/20 04:41:18;;;;;;;13.02;5.55;;;;;;;;;;5092207;28;20158;-72
2022/01/20 04:43:44;;;;;;;10.93;6.05;;;;;;;;;;5095529;28;20024;-69
2022/01/20 04:46:18;;;;;;;10.25;5.57;;;;;;;;;;5096242;28;20016;-73
2022/01/20 04:49:04;;;;;;;12.27;5.53;;;;;;;;;;5096285;28;20469;-72
2022/01/20 04:57:20;;;;;;;11.18;5.50;;;;;;;;;;5097867;28;20502;-73
2022/01/20 04:59:47;;;;;;;8.90;4.82;;;;;;;;;;5096120;28;20024;-73
2022/01/20 05:02:13;;;;;;;11.13;5.10;;;;;;;;;;5097331;28;20032;-68
2022/01/20 05:04:39;;;;;;;10.98;5.78;;;;;;;;;;5098361;28;20357;-73
2022/01/20 05:07:07;;;;;;;10.68;5.53;;;;;;;;;;5095938;28;20046;-72
2022/01/20 05:09:34;;;;;;;11.65;5.65;;;;;;;;;;5097164;28;20476;-72
2022/01/20 05:12:08;;;;;;;9.00;4.80;;;;;;;;;;5097374;28;20093;-71
2022/01/20 05:14:34;;;;;;;10.07;5.15;;;;;;;;;;5095794;28;20055;-72
2022/01/20 05:17:00;;;;;;;13.73;5.60;;;;;;;;;;5095715;28;20373;-68
2022/01/20 05:19:30;;;;;;;11.18;5.00;;;;;;;;;;5096946;28;20073;-73
2022/01/20 05:21:57;;;;;;;10.13;5.30;;;;;;;;;;5097483;28;20471;-72
2022/01/20 05:24:23;;;;;;;9.95;5.32;;;;;;;;;;5095654;28;20059;-72
2022/01/20 05:26:50;;;;;;;12.05;5.22;;;;;;;;;;5098562;28;20092;-74
2022/01/20 05:29:20;;;;;;;10.68;4.95;;;;;;;;;;5096608;28;20024;-73
2022/01/20 05:31:46;;;;;;;10.70;5.75;;;;;;;;;;5095427;28;20032;-73
2022/01/20 05:34:13;;;;;;;10.13;5.13;;;;;;;;;;5095381;28;20028;-71
2022/01/20 05:36:39;;;;;;;10.20;5.20;;;;;;;;;;5096539;28;20036;-74
2022/01/20 05:39:06;;;;;;;9.13;4.80;;;;;;;;;;5096567;28;20021;-74
2022/01/20 05:41:32;;;;;;;10.20;5.13;;;;;;;;;;5095267;28;20032;-74
2022/01/20 05:43:58;;;;;;;9.63;5.20;;;;;;;;;;5095291;28;20023;-73
2022/01/20 05:46:28;;;;;;;7.93;4.70;;;;;;;;;;5095172;28;20499;-73
2022/01/20 05:48:58;;;;;;;8.75;4.53;;;;;;;;;;5095089;28;20031;-73
2022/01/20 05:51:24;;;;;;;9.52;5.05;;;;;;;;;;5095043;28;20040;-72
2022/01/20 05:53:50;;;;;;;9.80;5.40;;;;;;;;;;5094275;28;20024;-71
2022/01/20 05:56:16;;;;;;;9.98;4.85;;;;;;;;;;5095836;28;20070;-73
2022/01/20 05:58:43;;;;;;;8.88;4.47;;;;;;;;;;5094222;28;20507;-70
2022/01/20 06:01:09;;;;;;;10.52;4.68;;;;;;;;;;5094130;28;20028;-72
2022/01/20 06:03:39;;;;;;;8.50;4.55;;;;;;;;;;5094884;28;20024;-71
2022/01/20 06:06:10;;;;;;;8.45;4.88;;;;;;;;;;5094848;28;20028;-72
2022/01/20 06:08:37;;;;;;;15.68;5.43;;;;;;;;;;5094701;28;20024;-73
2022/01/20 06:11:03;;;;;;;8.57;4.68;;;;;;;;;;5083868;28;20433;-65
2022/01/20 06:13:30;;;;;;;9.05;4.82;;;;;;;;;;5092110;28;20036;-68
2022/01/20 06:15:56;;;;;;;7.93;4.68;;;;;;;;;;5095898;28;20016;-69
2022/01/20 06:18:22;;;;;;;9.20;5.65;;;;;;;;;;5094357;28;20040;-67
2022/01/20 06:20:49;;;;;;;9.05;4.20;;;;;;;;;;5094469;28;20392;-68
2022/01/20 06:23:16;;;;;;;7.85;4.32;;;;;;;;;;5094417;28;20035;-68
2022/01/20 06:25:42;;;;;;;10.52;6.15;;;;;;;;;;5095569;28;20042;-68
2022/01/20 06:28:08;;;;;;;8.40;4.70;;;;;;;;;;5094262;28;20030;-68
2022/01/20 06:30:35;;;;;;;8.75;4.70;;;;;;;;;;5095410;28;20058;-69
2022/01/20 06:33:01;;;;;;;8.23;4.13;;;;;;;;;;5095368;28;20028;-69
2022/01/20 06:35:28;;;;;;;9.57;4.50;;;;;;;;;;5094196;28;20115;-68
2022/01/20 06:37:54;;;;;;;8.43;4.65;;;;;;;;;;5095281;28;20035;-70
2022/01/20 06:40:20;;;;;;;8.88;3.92;;;;;;;;;;5095296;28;20102;-69
2022/01/20 06:42:47;;;;;;;10.13;5.05;;;;;;;;;;5095322;28;20495;-69
2022/01/20 06:45:14;;;;;;;8.27;4.40;;;;;;;;;;5093957;28;20024;-69
2022/01/20 06:47:40;;;;;;;13.75;5.28;;;;;;;;;;5093934;28;20552;-66
2022/01/20 06:50:08;;;;;;;7.85;4.18;;;;;;;;;;5093887;28;20473;-69
2022/01/20 06:52:34;;;;;;;7.88;4.15;;;;;;;;;;5094961;28;20098;-67
2022/01/20 06:55:05;;;;;;;6.25;3.35;;;;;;;;;;5093694;28;20036;-68
2022/01/20 06:57:31;;;;;;;8.85;4.38;;;;;;;;;;5095167;28;20104;-68
2022/01/20 06:59:57;;;;;;;9.13;4.53;;;;;;;;;;5093727;28;20027;-70
2022/01/20 07:02:24;;;;;;;9.65;4.28;;;;;;;;;;5095044;28;20443;-69
2022/01/20 07:04:51;;;;;;;7.85;3.80;;;;;;;;;;5094767;28;20108;-69
2022/01/20 07:07:17;;;;;;;9.13;4.18;;;;;;;;;;5094056;28;20423;-70
2022/01/20 07:09:44;;;;;;;7.60;4.13;;;;;;;;;;5093567;28;20020;-70
2022/01/20 07:12:10;;;;;;;7.25;4.22;;;;;;;;;;5094831;28;20441;-70
2022/01/20 07:14:37;;;;;;;8.95;4.28;;;;;;;;;;5093593;28;20518;-70
2022/01/20 07:17:03;;;;;;;8.90;4.43;;;;;;;;;;5093697;28;20127;-71
2022/01/20 07:19:29;;;;;;;8.30;4.35;;;;;;;;;;5095020;28;20095;-69
2022/01/20 07:21:55;;;;;;;9.88;4.35;;;;;;;;;;5094568;28;20032;-71
2022/01/20 07:24:21;;;;;;;9.25;3.75;;;;;;;;;;5093159;28;20107;-71
2022/01/20 07:26:47;;;;;;;6.35;3.72;;;;;;;;;;5094277;28;20082;-70
2022/01/20 07:29:14;;;;;;;9.23;3.78;;;;;;;;;;5093190;28;20077;-70
2022/01/20 07:31:40;;;;;;;6.88;3.85;;;;;;;;;;5094300;28;20065;-70
2022/01/20 07:34:06;;;;;;;7.78;3.80;;;;;;;;;;5094378;28;20024;-70
2022/01/20 07:36:33;;;;;;;8.65;4.22;;;;;;;;;;5092787;28;20043;-71
2022/01/20 07:38:59;;;;;;;6.88;3.97;;;;;;;;;;5094277;28;20027;-70
2022/01/20 07:41:25;;;;;;;10.05;4.13;;;;;;;;;;5094234;28;20031;-71
2022/01/20 07:43:51;;;;;;;10.38;3.90;;;;;;;;;;5094068;28;20098;-71
2022/01/20 07:46:17;;;;;;;8.25;3.80;;;;;;;;;;5094122;28;20023;-71
2022/01/20 07:48:43;;;;;;;8.13;3.97;;;;;;;;;;5092813;28;20116;-70
2022/01/20 07:51:10;;;;;;;6.75;3.10;;;;;;;;;;5092692;28;20035;-70
2022/01/20 07:53:36;;;;;;;6.57;3.25;;;;;;;;;;5092700;28;20141;-71
2022/01/20 07:56:03;;;;;;;6.03;3.40;;;;;;;;;;5092512;28;20028;-72
2022/01/20 07:58:29;;;;;;;6.03;3.17;;;;;;;;;;5092541;28;20111;-71
2022/01/20 08:00:55;;;;;;;7.78;3.67;;;;;;;;;;5092561;28;20549;-71
2022/01/20 08:03:21;;;;;;;6.90;3.83;;;;;;;;;;5093824;28;20024;-71
2022/01/20 08:05:47;;;;;;;8.30;4.32;;;;;;;;;;5093906;28;20020;-70
2022/01/20 08:08:13;;;;;;;7.35;3.75;;;;;;;;;;5092375;28;20426;-69
2022/01/20 08:10:40;;;;;;;8.63;3.60;;;;;;;;;;5094146;28;20020;-68
2022/01/20 08:13:06;;;;;;;6.10;3.15;;;;;;;;;;5092222;28;20032;-67
2022/01/20 08:15:32;;;;;;;7.38;3.70;;;;;;;;;;5090665;28;20489;-67
2022/01/20 08:17:58;;;;;;;6.75;3.80;;;;;;;;;;5091547;28;20032;-67
2022/01/20 08:20:24;;;;;;;6.05;2.92;;;;;;;;;;5093470;28;20024;-67
2022/01/20 08:22:51;;;;;;;6.88;2.92;;;;;;;;;;5093538;28;20036;-70
2022/01/20 08:25:18;;;;;;;5.65;3.38;;;;;;;;;;5091923;28;20028;-67
2022/01/20 08:27:46;;;;;;;5.18;2.83;;;;;;;;;;5092230;28;20048;-68
2022/01/20 08:30:14;;;;;;;9.77;3.33;;;;;;;;;;5092078;28;20032;-68
2022/01/20 08:32:40;;;;;;;9.85;4.43;;;;;;;;;;5091984;28;20079;-68
2022/01/20 08:35:09;;;;;;;8.10;4.32;;;;;;;;;;5092210;28;20461;-70
2022/01/20 08:37:35;;;;;;;8.07;4.05;;;;;;;;;;5093325;28;20032;-71
2022/01/20 08:40:04;;;;;;;9.95;4.32;;;;;;;;;;5092028;28;20105;-69
2022/01/20 08:42:31;;;;;;;9.80;3.92;;;;;;;;;;5091933;28;20439;-72
2022/01/20 08:44:57;;;;;;;14.05;3.65;;;;;;;;;;5091962;28;20035;-67
2022/01/20 08:47:23;;;;;;;14.50;4.35;;;;;;;;;;5092036;28;20027;-67
2022/01/20 08:49:50;;;;;;;10.65;3.90;;;;;;;;;;5091884;28;20483;-67
2022/01/20 08:52:16;;;;;;;10.02;3.75;;;;;;;;;;5091849;28;20020;-66
2022/01/20 08:54:47;;;;;;;7.97;3.70;;;;;;;;;;5091988;28;20036;-69
2022/01/20 08:57:14;;;;;;;6.57;2.97;;;;;;;;;;5091855;28;20040;-69
2022/01/20 08:59:42;;;;;;;6.82;2.97;;;;;;;;;;5091961;28;20099;-67
2022/01/20 09:02:09;;;;;;;7.00;2.85;;;;;;;;;;5093175;28;20020;-65
2022/01/20 09:04:35;;;;;;;6.32;2.75;;;;;;;;;;5091755;28;20115;-66
2022/01/20 09:07:01;;;;;;;5.32;2.67;;;;;;;;;;5091863;28;20056;-65
2022/01/20 09:09:28;;;;;;;5.47;2.47;;;;;;;;;;5093268;28;20024;-66
2022/01/20 09:17:27;;;;;;;4.20;2.35;;;;;;;;;;5093038;28;20046;-67
2022/01/20 09:19:53;;;;;;;5.75;2.70;;;;;;;;;;5091739;28;20051;-66
2022/01/20 09:22:19;;;;;;;5.35;2.53;;;;;;;;;;5092847;28;20035;-66
2022/01/20 09:24:46;;;;;;;6.15;2.60;;;;;;;;;;5091635;28;20024;-66
2022/01/20 09:27:13;;;;;;;6.25;3.22;;;;;;;;;;5091192;28;20047;-69
2022/01/20 09:29:40;;;;;;;5.65;2.15;;;;;;;;;;5094214;28;20487;-70
2022/01/20 09:32:09;;;;;;;4.53;2.05;;;;;;;;;;5095372;28;20031;-68
2022/01/20 09:34:35;;;;;;;4.82;2.50;;;;;;;;;;5096605;28;20072;-66
2022/01/20 09:37:01;;;;;;;5.95;2.40;;;;;;;;;;5095224;28;20036;-69
2022/01/20 09:39:27;;;;;;;3.85;2.25;;;;;;;;;;5096821;28;20050;-66
2022/01/20 09:41:54;;;;;;;4.85;2.58;;;;;;;;;;5095156;28;20024;-66
2022/01/20 09:44:20;;;;;;;4.15;2.30;;;;;;;;;;5096463;28;20427;-66
2022/01/20 09:46:46;;;;;;;6.53;2.10;;;;;;;;;;5095097;28;20024;-69
2022/01/20 09:49:13;;;;;;;7.05;1.88;;;;;;;;;;5095055;28;20448;-67
2022/01/20 09:51:40;;;;;;;4.05;1.98;;;;;;;;;;5095123;28;20098;-67
2022/01/20 09:54:06;;;;;;;4.03;1.95;;;;;;;;;;5094984;28;20020;-66
2022/01/20 09:56:32;;;;;;;3.78;1.75;;;;;;;;;;5096363;28;20059;-68
2022/01/20 09:58:59;;;;;;;4.53;1.90;;;;;;;;;;5094928;28;20053;-66
2022/01/20 10:01:58;;;;;;;4.05;2.08;;;;;;;;;;5096767;28;20074;-70
2022/01/20 10:04:26;;;;;;;3.55;1.67;;;;;;;;;;5079878;28;20070;-68
2022/01/20 10:06:53;;;;;;;4.03;1.98;;;;;;;;;;5096718;28;20035;-68
2022/01/20 10:09:26;;;;;;;5.20;2.00;;;;;;;;;;5094437;28;20042;-67
2022/01/20 10:11:52;;;;;;;3.95;2.08;;;;;;;;;;5094591;28;20059;-66
2022/01/20 10:14:18;;;;;;;4.68;1.80;;;;;;;;;;5095571;28;20032;-66
2022/01/20 10:16:45;;;;;;;4.35;1.85;;;;;;;;;;5095832;28;20502;-66
2022/01/20 10:19:11;;;;;;;4.13;1.98;;;;;;;;;;5095882;28;20055;-66
2022/01/20 10:21:38;;;;;;;3.72;1.45;;;;;;;;;;5094403;28;20051;-67
2022/01/20 10:24:08;;;;;;;3.75;1.50;;;;;;;;;;5095750;28;20097;-66
2022/01/20 10:26:35;;;;;;;3.70;1.52;;;;;;;;;;5094086;28;20105;-68
2022/01/20 10:29:05;;;;;;;2.90;1.50;;;;;;;;;;5094435;28;20107;-69
2022/01/20 10:31:36;;;;;;;3.28;1.13;;;;;;;;;;5095529;28;20069;-67
2022/01/20 10:34:03;;;;;;;2.45;0.88;;;;;;;;;;5095590;28;20032;-69
2022/01/20 10:36:29;;;;;;;2.03;0.70;;;;;;;;;;5094045;28;20031;-67
2022/01/20 10:38:57;;;;;;;1.27;0.55;;;;;;;;;;5095417;28;20028;-69
2022/01/20 10:41:27;;;;;;;2.05;0.85;;;;;;;;;;5094967;28;20031;-69
2022/01/20 10:43:59;;;;;;;3.90;0.77;;;;;;;;;;5095162;28;20103;-67
2022/01/20 10:46:25;;;;;;;1.55;0.75;;;;;;;;;;5094613;28;20034;-68
2022/01/20 10:49:01;;;;;;;1.70;0.80;;;;;;;;;;5093937;28;20020;-67
2022/01/20 10:51:28;;;;;;;1.30;0.60;;;;;;;;;;5093918;28;20017;-68
2022/01/20 10:54:08;;;;;;;1.42;0.70;;;;;;;;;;5093734;28;20036;-68
2022/01/20 10:56:51;;;;;;;1.92;0.70;;;;;;;;;;5093665;28;20040;-68
2022/01/20 10:59:18;;;;;;;2.00;0.80;;;;;;;;;;5094940;28;20020;-68
2022/01/20 11:01:45;;;;;;;1.35;0.65;;;;;;;;;;5093806;28;20050;-69
2022/01/20 11:04:11;;;;;;;1.65;0.73;;;;;;;;;;5093982;28;20016;-68
2022/01/20 11:06:37;;;;;;;1.60;0.70;;;;;;;;;;5094822;28;20081;-67
2022/01/20 11:09:07;;;;;;;1.30;0.55;;;;;;;;;;5094799;28;20103;-69
2022/01/20 11:11:34;;;;;;;1.40;0.60;;;;;;;;;;5093455;28;20032;-72
2022/01/20 11:14:00;;;;;;;1.52;0.80;;;;;;;;;;5093367;28;20106;-69
2022/01/20 11:16:27;;;;;;;2.03;0.75;;;;;;;;;;5093868;28;20075;-70
2022/01/20 11:18:53;;;;;;;1.60;0.80;;;;;;;;;;5093420;28;20035;-67
2022/01/20 11:21:23;;;;;;;1.35;0.60;;;;;;;;;;5094741;28;20057;-68
2022/01/20 11:23:50;;;;;;;2.50;0.82;;;;;;;;;;5093187;28;20126;-68
2022/01/20 11:26:16;;;;;;;1.23;0.57;;;;;;;;;;5094633;28;20094;-68
2022/01/20 11:28:56;;;;;;;4.28;0.50;;;;;;;;;;5093138;28;20020;-67
2022/01/20 11:31:29;;;;;;;1.35;0.65;;;;;;;;;;5094466;28;20028;-67
2022/01/20 11:33:55;;;;;;;1.65;0.57;;;;;;;;;;5092988;28;20031;-68
2022/01/20 11:36:21;;;;;;;2.55;0.98;;;;;;;;;;5094304;28;20132;-69
2022/01/20 11:38:49;;;;;;;1.90;0.65;;;;;;;;;;5094247;28;20032;-69
2022/01/20 11:41:21;;;;;;;3.17;0.60;;;;;;;;;;5092795;28;20475;-70
2022/01/20 11:43:49;;;;;;;2.35;0.98;;;;;;;;;;5092740;28;20024;-69
2022/01/20 11:46:23;;;;;;;1.75;0.60;;;;;;;;;;5092885;28;20051;-70
2022/01/20 11:49:00;;;;;;;2.55;0.70;;;;;;;;;;5092820;28;20016;-69
2022/01/20 11:51:27;;;;;;;1.55;0.75;;;;;;;;;;5093837;28;20545;-70
2022/01/20 11:54:01;;;;;;;2.85;1.15;;;;;;;;;;5093616;28;20461;-69
2022/01/20 11:56:38;;;;;;;2.92;0.82;;;;;;;;;;5092575;28;20036;-70
2022/01/20 11:59:05;;;;;;;1.33;0.60;;;;;;;;;;5092465;28;20028;-69
2022/01/20 12:01:42;;;;;;;2.13;0.90;;;;;;;;;;5075976;28;20447;-69
2022/01/20 12:04:08;;;;;;;2.92;1.30;;;;;;;;;;5093742;28;20028;-67
2022/01/20 12:06:46;;;;;;;1.90;0.93;;;;;;;;;;5094099;28;20488;-69
2022/01/20 12:09:13;;;;;;;3.15;1.23;;;;;;;;;;5092483;28;20024;-68
2022/01/20 12:11:40;;;;;;;4.13;1.38;;;;;;;;;;5093630;28;20031;-68
2022/01/20 12:14:07;;;;;;;3.10;1.50;;;;;;;;;;5092402;28;20020;-68
2022/01/20 12:16:33;;;;;;;3.25;1.00;;;;;;;;;;5092206;28;20032;-68
2022/01/20 12:19:00;;;;;;;1.58;0.70;;;;;;;;;;5092311;28;20077;-68
2022/01/20 12:21:28;;;;;;;2.20;1.05;;;;;;;;;;5092297;28;20027;-70
2022/01/20 12:23:55;;;;;;;2.83;1.20;;;;;;;;;;5092139;28;20024;-68
2022/01/20 12:26:21;;;;;;;2.78;1.10;;;;;;;;;;5093037;28;20056;-67
2022/01/20 12:28:48;;;;;;;1.95;0.90;;;;;;;;;;5092237;28;20024;-69
2022/01/20 12:31:14;;;;;;;1.42;0.60;;;;;;;;;;5092186;28;20106;-67
2022/01/20 12:33:47;;;;;;;2.05;1.02;;;;;;;;;;5092177;28;20020;-70
2022/01/20 12:36:17;;;;;;;1.85;0.75;;;;;;;;;;5092155;28;20028;-67
2022/01/20 12:38:45;;;;;;;3.20;0.98;;;;;;;;;;5092131;28;20108;-68
2022/01/20 12:41:11;;;;;;;3.17;1.10;;;;;;;;;;5092144;28;20020;-71
2022/01/20 12:43:39;;;;;;;3.03;1.00;;;;;;;;;;5093437;28;20103;-70
2022/01/20 12:46:06;;;;;;;2.80;0.90;;;;;;;;;;5093200;28;20035;-70
2022/01/20 12:48:33;;;;;;;2.10;1.02;;;;;;;;;;5092023;28;20039;-69
2022/01/20 12:51:02;;;;;;;3.15;1.40;;;;;;;;;;5091987;28;20051;-69
2022/01/20 12:53:35;;;;;;;3.92;1.50;;;;;;;;;;5092238;28;20024;-68
2022/01/20 12:56:02;;;;;;;3.65;1.10;;;;;;;;;;5092226;28;20035;-67
2022/01/20 12:58:28;;;;;;;4.82;1.65;;;;;;;;;;5091774;28;20024;-69
2022/01/20 13:01:01;;;;;;;3.00;1.20;;;;;;;;;;5092016;28;20032;-68
2022/01/20 13:03:27;;;;;;;;;;;;;;;;;;5093437;28;20038;-67
2022/01/20 13:05:57;;;;;;;1.98;0.80;;;;;;;;;;5095822;28;19904;-67
2022/01/20 13:08:25;;;;;;;3.90;1.10;;;;;;;;;;5096115;28;20426;-67
2022/01/20 13:11:01;;;;;;;1.95;0.82;;;;;;;;;;5097100;28;20020;-67
2022/01/20 13:13:27;;;;;;;1.88;1.00;;;;;;;;;;5095838;28;20036;-67
2022/01/20 13:15:53;;;;;;;2.13;1.00;;;;;;;;;;5095668;28;20124;-69
2022/01/20 13:18:19;;;;;;;3.10;1.27;;;;;;;;;;5095594;28;20127;-67
2022/01/20 13:20:54;;;;;;;2.00;1.08;;;;;;;;;;5095662;28;20115;-68
2022/01/20 13:25:46;;;;;;;20.30;2.35;;;;;;;;;;5096725;28;20089;-68
2022/01/20 13:28:14;;;;;;;3.55;1.52;;;;;;;;;;5097046;28;20072;-69
2022/01/20 13:30:47;;;;;;;3.35;1.55;;;;;;;;;;5095158;28;20484;-70
2022/01/20 13:33:13;;;;;;;;;;;;;;;;;;5095764;28;20031;-67
2022/01/20 13:35:41;;;;;;;2.72;1.08;;;;;;;;;;5095307;28;20284;-67
2022/01/20 13:38:08;;;;;;;1.92;0.55;;;;;;;;;;5095226;28;20043;-68
2022/01/20 13:40:35;;;;;;;2.58;0.60;;;;;;;;;;5095080;28;20055;-69
2022/01/20 13:45:44;;;;;;;2.10;0.70;;;;;;;;;;5096383;28;20145;-69
2022/01/20 13:48:12;;;;;;;3.53;0.50;;;;;;;;;;5094972;28;20039;-69
2022/01/20 13:50:47;;;;;;;26.95;1.92;;;;;;;;;;5095025;28;20024;-70
2022/01/20 13:53:16;;;;;;;10.88;0.90;;;;;;;;;;5095064;28;20043;-68
2022/01/20 13:55:47;;;;;;;1.77;0.50;;;;;;;;;;5094985;28;20023;-71
2022/01/20 13:58:23;;;;;;;11.25;0.75;;;;;;;;;;5096352;28;20098;-70
2022/01/20 14:00:49;;;;;;;8.38;0.85;;;;;;;;;;5094748;28;20385;-71
2022/01/20 14:03:16;;;;;;;3.28;0.90;;;;;;;;;;5094833;28;20115;-69
2022/01/20 14:05:42;;;;;;;2.17;0.70;;;;;;;;;;5094844;28;20016;-68
2022/01/20 14:08:08;;;;;;;1.17;0.50;;;;;;;;;;5095772;28;20535;-68
2022/01/20 14:10:35;;;;;;;1.20;0.30;;;;;;;;;;5094601;28;20069;-68
2022/01/20 14:13:01;;;;;;;1.67;0.30;;;;;;;;;;5094598;28;20085;-69
2022/01/20 14:15:27;;;;;;;1.20;0.50;;;;;;;;;;5093965;28;20059;-66
2022/01/20 14:17:57;;;;;;;7.03;0.70;;;;;;;;;;5094373;28;20032;-66
2022/01/20 14:20:24;;;;;;;2.28;0.43;;;;;;;;;;5094424;28;20024;-68
2022/01/20 14:22:54;;;;;;;1.58;0.60;;;;;;;;;;5094458;28;20028;-68
2022/01/20 14:25:22;;;;;;;1.45;0.50;;;;;;;;;;5094171;28;20349;-68
2022/01/20 14:27:49;;;;;;;1.73;0.50;;;;;;;;;;5094265;28;20028;-69
2022/01/20 14:30:15;;;;;;;2.60;0.40;;;;;;;;;;5095586;28;20391;-70
2022/01/20 14:32:42;;;;;;;1.75;0.70;;;;;;;;;;5094219;28;20043;-68
2022/01/20 14:35:08;;;;;;;1.02;0.45;;;;;;;;;;5095430;28;20024;-69
2022/01/20 14:37:37;;;;;;;1.77;0.50;;;;;;;;;;5094073;28;20043;-70
2022/01/20 14:40:23;;;;;;;2.78;1.00;;;;;;;;;;5095347;28;20510;-68
2022/01/20 14:42:49;;;;;;;2.33;0.90;;;;;;;;;;5095376;28;20035;-67
2022/01/20 14:45:18;;;;;;;1.33;0.50;;;;;;;;;;5095217;28;20025;-68
2022/01/20 14:47:44;;;;;;;2.78;0.75;;;;;;;;;;5095233;28;20027;-69
2022/01/20 14:50:11;;;;;;;3.03;0.73;;;;;;;;;;5093821;28;20089;-69
2022/01/20 14:52:38;;;;;;;2.67;0.77;;;;;;;;;;5093913;28;20028;-69
2022/01/20 14:55:05;;;;;;;3.90;0.80;;;;;;;;;;5093965;28;20024;-68
2022/01/20 14:57:31;;;;;;;3.90;0.80;;;;;;;;;;5093714;28;20392;-69
2022/01/20 14:59:57;;;;;;;2.03;0.70;;;;;;;;;;5093710;28;20073;-67
2022/01/20 15:02:23;;;;;;;3.53;0.93;;;;;;;;;;5093719;28;20035;-69
2022/01/20 15:04:52;;;;;;;3.65;1.00;;;;;;;;;;5093634;28;20047;-69
2022/01/20 15:07:18;;;;;;;3.83;0.80;;;;;;;;;;5093505;28;20035;-70
2022/01/20 15:09:44;;;;;;;2.53;0.90;;;;;;;;;;5093546;28;20070;-68
2022/01/20 15:12:10;;;;;;;2.53;0.90;;;;;;;;;;5093440;28;20027;-67
2022/01/20 15:14:37;;;;;;;2.88;0.77;;;;;;;;;;5093771;28;20059;-67
2022/01/20 15:17:04;;;;;;;8.52;1.73;;;;;;;;;;5093335;28;20036;-68
2022/01/20 15:19:30;;;;;;;6.85;2.75;;;;;;;;;;5093365;28;20066;-67
2022/01/20 15:21:56;;;;;;;9.85;3.38;;;;;;;;;;5093284;28;20052;-68
2022/01/20 15:24:22;;;;;;;5.60;2.40;;;;;;;;;;5093319;28;20184;-67
2022/01/20 15:26:48;;;;;;;5.18;2.33;;;;;;;;;;5091866;28;20048;-67
2022/01/20 15:29:14;;;;;;;4.72;2.00;;;;;;;;;;5093290;28;20028;-69
2022/01/20 15:31:41;;;;;;;6.28;1.67;;;;;;;;;;5093124;28;20032;-69
2022/01/20 15:34:14;;;;;;;7.22;2.38;;;;;;;;;;5094336;28;20044;-68